Time;durP1;ratioP1;P1;durP2;ratioP2;P2;SDS_P1;SDS_P2;PMS_P1;PMS_P2;Temp;Humidity;BMP_temperature;BMP_pressure;BME280_temperature;BME280_humidity;BME280_pressure;Samples;Min_cycle;Max_cycle;Signal;HPM_P1;HPM_P2
2023/03/13 00:00:54;;;;;;;37.58;6.13;;;8.30;99.90;;;;;;4954522;28;20050;-83
2023/03/13 00:03:20;;;;;;;36.10;6.40;;;8.30;99.90;;;;;;4937475;28;20074;-83
2023/03/13 00:05:45;;;;;;;36.47;6.18;;;8.30;99.90;;;;;;4953297;28;20133;-83
2023/03/13 00:08:11;;;;;;;29.13;6.43;;;8.30;99.90;;;;;;4938427;28;20098;-83
2023/03/13 00:10:38;;;;;;;44.38;6.65;;;8.30;99.90;;;;;;4937892;28;20513;-83
2023/03/13 00:13:04;;;;;;;37.25;6.10;;;8.30;99.90;;;;;;4954990;28;20047;-83
2023/03/13 00:15:30;;;;;;;43.03;7.07;;;8.30;99.90;;;;;;4953471;28;20109;-84
2023/03/13 00:17:56;;;;;;;41.95;7.05;;;8.30;99.90;;;;;;4954564;28;20043;-84
2023/03/13 00:20:22;;;;;;;34.05;7.38;;;8.30;99.90;;;;;;4953354;28;20607;-83
2023/03/13 00:22:47;;;;;;;41.78;7.00;;;8.30;99.90;;;;;;4954757;28;20043;-83
2023/03/13 00:25:13;;;;;;;40.58;6.93;;;8.20;99.90;;;;;;4954422;28;20501;-83
2023/03/13 00:27:39;;;;;;;44.15;8.38;;;8.20;99.90;;;;;;4938230;28;20043;-84
2023/03/13 00:30:05;;;;;;;41.05;6.47;;;8.20;99.90;;;;;;4938319;28;20089;-83
2023/03/13 00:32:30;;;;;;;40.50;7.05;;;8.20;99.90;;;;;;4954741;28;20051;-84
2023/03/13 00:34:56;;;;;;;42.83;7.13;;;8.20;99.90;;;;;;4968556;28;20057;-83
2023/03/13 00:37:22;;;;;;;38.05;6.45;;;8.20;99.90;;;;;;4954036;28;20089;-84
2023/03/13 00:39:47;;;;;;;43.38;7.05;;;8.20;99.90;;;;;;4937508;28;20055;-83
2023/03/13 00:42:13;;;;;;;39.22;6.93;;;8.20;99.90;;;;;;4954583;28;20046;-85
2023/03/13 00:44:39;;;;;;;45.40;7.90;;;8.20;99.90;;;;;;4953764;28;20051;-85
2023/03/13 00:47:06;;;;;;;41.38;7.25;;;8.20;99.90;;;;;;4939087;29;20076;-85
2023/03/13 00:49:32;;;;;;;42.88;7.88;;;8.20;99.90;;;;;;4935515;29;20055;-85
2023/03/13 00:51:58;;;;;;;40.50;7.05;;;8.20;99.90;;;;;;4934306;29;20644;-85
2023/03/13 00:54:24;;;;;;;39.38;7.70;;;8.20;99.90;;;;;;4934860;29;20061;-85
2023/03/13 00:56:49;;;;;;;46.88;8.10;;;8.30;99.90;;;;;;4935024;29;20050;-85
2023/03/13 00:59:15;;;;;;;44.30;8.77;;;8.20;99.90;;;;;;4934464;29;20051;-85
2023/03/13 01:01:41;;;;;;;42.15;7.07;;;8.20;99.90;;;;;;4919172;29;20058;-84
2023/03/13 01:04:10;;;;;;;38.35;6.82;;;8.20;99.90;;;;;;4934835;29;20403;-85
2023/03/13 01:06:39;;;;;;;53.88;9.23;;;8.20;99.90;;;;;;4949438;29;20043;-84
2023/03/13 01:09:05;;;;;;;37.70;6.45;;;8.20;99.90;;;;;;4934280;29;20102;-85
2023/03/13 01:11:36;;;;;;;49.40;8.18;;;8.20;99.90;;;;;;4918315;29;20054;-85
2023/03/13 01:14:06;;;;;;;47.75;8.52;;;8.20;99.90;;;;;;4934286;29;20055;-85
2023/03/13 01:16:34;;;;;;;42.45;7.25;;;8.20;99.90;;;;;;4934242;29;20054;-85
2023/03/13 01:19:02;;;;;;;44.20;7.53;;;8.20;99.90;;;;;;4933814;29;20495;-85
2023/03/13 01:21:28;;;;;;;44.63;7.50;;;8.20;99.90;;;;;;4917876;29;20479;-85
2023/03/13 01:23:54;;;;;;;50.42;7.93;;;8.20;99.90;;;;;;4933783;29;20086;-85
2023/03/13 01:26:20;;;;;;;45.05;7.07;;;8.20;99.90;;;;;;4933890;29;20074;-85
2023/03/13 01:28:46;;;;;;;39.00;7.80;;;8.20;99.90;;;;;;4934387;29;20043;-85
2023/03/13 01:31:14;;;;;;;39.90;6.97;;;8.20;99.90;;;;;;4933643;29;20053;-85
2023/03/13 01:33:40;;;;;;;44.13;7.50;;;8.20;99.90;;;;;;4918014;29;20051;-85
2023/03/13 01:36:07;;;;;;;40.00;7.07;;;8.20;99.90;;;;;;4932520;29;20065;-85
2023/03/13 01:38:33;;;;;;;46.85;7.65;;;8.20;99.90;;;;;;4934512;29;20077;-86
2023/03/13 01:40:59;;;;;;;36.17;6.25;;;8.20;99.90;;;;;;4934040;29;20051;-85
2023/03/13 01:43:28;;;;;;;43.65;7.15;;;8.20;99.90;;;;;;4934018;29;20095;-86
2023/03/13 01:45:53;;;;;;;37.42;6.90;;;8.20;99.90;;;;;;4933631;29;20054;-86
2023/03/13 01:48:23;;;;;;;37.17;7.38;;;8.20;99.90;;;;;;4918196;29;20083;-86
2023/03/13 01:50:53;;;;;;;46.15;7.47;;;8.20;99.90;;;;;;4933134;29;20087;-86
2023/03/13 01:53:27;;;;;;;39.78;7.85;;;8.20;99.90;;;;;;4934456;29;20150;-86
2023/03/13 01:55:54;;;;;;;50.15;7.25;;;7.80;99.90;;;;;;4933051;29;20082;-86
2023/03/13 01:58:21;;;;;;;33.47;6.57;;;8.20;99.90;;;;;;4934308;28;20423;-86
2023/03/13 02:00:47;;;;;;;36.40;6.97;;;8.20;99.90;;;;;;4917337;29;20565;-86
2023/03/13 02:03:16;;;;;;;42.88;7.80;;;8.20;99.90;;;;;;4934224;29;20054;-86
2023/03/13 02:05:53;;;;;;;47.63;6.63;;;8.20;99.90;;;;;;4933312;29;20047;-85
2023/03/13 02:08:24;;;;;;;36.20;6.25;;;7.70;99.90;;;;;;4933275;29;20054;-85
2023/03/13 02:11:14;;;;;;;37.67;6.63;;;8.20;99.90;;;;;;4933113;29;20051;-85
2023/03/13 02:13:40;;;;;;;37.10;6.65;;;8.30;99.90;;;;;;4917773;29;20043;-84
2023/03/13 02:16:06;;;;;;;39.80;7.10;;;8.20;99.90;;;;;;4932929;29;20047;-85
2023/03/13 02:18:32;;;;;;;39.55;6.70;;;8.30;99.90;;;;;;4933268;29;20043;-86
2023/03/13 02:21:08;;;;;;;36.95;6.88;;;8.30;99.90;;;;;;4917475;29;20051;-85
2023/03/13 02:23:41;;;;;;;45.28;7.00;;;8.40;99.90;;;;;;4916992;29;20114;-85
2023/03/13 02:26:07;;;;;;;33.45;7.38;;;8.30;99.90;;;;;;4933201;29;20126;-86
2023/03/13 02:28:38;;;;;;;47.30;8.00;;;8.30;99.90;;;;;;4933540;29;20106;-87
2023/03/13 02:31:04;;;;;;;38.92;8.15;;;8.30;99.90;;;;;;4932576;29;20047;-86
2023/03/13 02:33:35;;;;;;;30.10;6.60;;;8.30;99.90;;;;;;4934816;29;20062;-86
2023/03/13 02:36:02;;;;;;;40.25;7.82;;;8.30;99.90;;;;;;4932414;29;20478;-86
2023/03/13 02:38:36;;;;;;;43.00;7.65;;;8.30;99.90;;;;;;4934306;29;20118;-86
2023/03/13 02:41:04;;;;;;;38.13;6.80;;;8.30;99.90;;;;;;4933449;29;20051;-86
2023/03/13 02:43:33;;;;;;;40.50;7.13;;;8.30;99.90;;;;;;4930196;29;20056;-87
2023/03/13 02:46:02;;;;;;;37.72;7.30;;;8.20;99.90;;;;;;4922076;28;20503;-86
2023/03/13 02:48:35;;;;;;;34.63;6.45;;;8.30;99.90;;;;;;4933754;28;20043;-86
2023/03/13 02:51:05;;;;;;;26.83;6.68;;;8.30;99.90;;;;;;4932721;29;20043;-86
2023/03/13 02:53:34;;;;;;;27.70;6.68;;;8.30;99.90;;;;;;4933353;29;20047;-86
2023/03/13 02:56:00;;;;;;;31.20;5.82;;;8.30;99.90;;;;;;4933439;29;20040;-86
2023/03/13 02:58:26;;;;;;;24.63;5.90;;;8.30;99.90;;;;;;4934326;29;20097;-85
2023/03/13 03:00:52;;;;;;;25.27;6.65;;;8.30;99.90;;;;;;4952830;29;20062;-86
2023/03/13 03:03:18;;;;;;;22.52;5.47;;;8.30;99.90;;;;;;4937723;29;20050;-85
2023/03/13 03:05:43;;;;;;;23.15;5.28;;;8.30;99.90;;;;;;4935333;29;20051;-86
2023/03/13 03:08:12;;;;;;;15.70;4.95;;;8.30;99.90;;;;;;4937592;29;20035;-86
2023/03/13 03:10:38;;;;;;;21.55;5.70;;;8.40;99.90;;;;;;4936650;29;20089;-86
2023/03/13 03:13:03;;;;;;;19.75;5.30;;;8.40;99.90;;;;;;4936745;29;20078;-86
2023/03/13 03:15:29;;;;;;;21.42;5.00;;;8.40;99.90;;;;;;4937275;29;20047;-85
2023/03/13 03:17:55;;;;;;;15.93;4.40;;;8.50;99.90;;;;;;4952687;28;20078;-86
2023/03/13 03:20:30;;;;;;;14.88;4.53;;;8.50;99.90;;;;;;4935469;29;20655;-86
2023/03/13 03:22:58;;;;;;;15.07;4.43;;;8.50;99.90;;;;;;4937039;29;20164;-86
2023/03/13 03:25:27;;;;;;;13.20;3.92;;;8.50;99.90;;;;;;4936297;29;20054;-85
2023/03/13 03:27:52;;;;;;;13.73;4.13;;;8.50;99.90;;;;;;4936829;28;20043;-86
2023/03/13 03:30:18;;;;;;;15.25;4.45;;;8.50;99.90;;;;;;4937178;29;20058;-86
2023/03/13 03:32:44;;;;;;;9.85;3.67;;;8.60;99.90;;;;;;4936141;29;20090;-85
2023/03/13 03:35:10;;;;;;;13.55;4.28;;;8.50;99.90;;;;;;4936178;29;20565;-86
2023/03/13 03:37:35;;;;;;;12.93;3.80;;;8.60;99.90;;;;;;4936345;29;20444;-86
2023/03/13 03:40:04;;;;;;;12.60;4.00;;;8.60;99.90;;;;;;4936139;29;20133;-86
2023/03/13 03:42:30;;;;;;;12.88;3.50;;;8.70;99.90;;;;;;4937906;28;20407;-86
2023/03/13 03:44:55;;;;;;;10.85;3.65;;;8.70;99.90;;;;;;4955602;28;20062;-86
2023/03/13 03:47:21;;;;;;;11.80;3.60;;;8.80;99.90;;;;;;4938870;29;20043;-86
2023/03/13 03:49:47;;;;;;;13.43;3.45;;;8.80;99.90;;;;;;4936436;29;20054;-85
2023/03/13 03:52:13;;;;;;;12.25;4.13;;;8.80;99.90;;;;;;4936033;29;20089;-86
2023/03/13 03:54:38;;;;;;;12.00;3.75;;;8.90;99.90;;;;;;4936247;28;20047;-86
2023/03/13 03:57:07;;;;;;;11.10;4.18;;;8.90;99.90;;;;;;4935785;28;20403;-85
2023/03/13 03:59:33;;;;;;;8.57;3.45;;;8.80;99.90;;;;;;4936305;29;20502;-86
2023/03/13 04:01:59;;;;;;;8.40;3.45;;;9.00;99.90;;;;;;4935549;29;20063;-85
2023/03/13 04:04:25;;;;;;;7.75;3.47;;;9.00;99.90;;;;;;4936372;29;20055;-85
2023/03/13 04:06:50;;;;;;;9.57;3.50;;;8.90;99.90;;;;;;4934753;29;20040;-85
2023/03/13 04:09:16;;;;;;;8.60;3.50;;;9.00;99.90;;;;;;4935760;29;20050;-86
2023/03/13 04:11:42;;;;;;;14.70;4.03;;;8.90;99.90;;;;;;4936350;29;20043;-86
2023/03/13 04:14:08;;;;;;;11.43;3.60;;;9.00;99.90;;;;;;4935960;29;20156;-86
2023/03/13 04:16:33;;;;;;;10.57;4.28;;;9.00;99.90;;;;;;4935407;29;20049;-86
2023/03/13 04:18:59;;;;;;;9.20;3.60;;;9.00;99.90;;;;;;4936384;29;20055;-86
2023/03/13 04:21:25;;;;;;;9.63;3.80;;;9.10;99.90;;;;;;4935032;29;20047;-86
2023/03/13 04:23:51;;;;;;;8.57;3.38;;;9.10;99.90;;;;;;4936266;29;20047;-86
2023/03/13 04:26:16;;;;;;;8.57;3.33;;;9.10;99.90;;;;;;4935428;29;20039;-86
2023/03/13 04:28:42;;;;;;;8.43;3.60;;;9.20;99.90;;;;;;4935455;29;20039;-85
2023/03/13 04:31:08;;;;;;;10.23;3.75;;;9.20;99.90;;;;;;4935357;29;20083;-86
2023/03/13 04:33:35;;;;;;;7.60;4.22;;;9.30;99.90;;;;;;4935690;29;20065;-85
2023/03/13 04:36:01;;;;;;;9.80;4.78;;;9.30;99.90;;;;;;4934391;29;20043;-86
2023/03/13 04:38:27;;;;;;;11.27;6.15;;;9.40;99.90;;;;;;4935048;29;20483;-86
2023/03/13 04:40:53;;;;;;;10.93;6.07;;;9.40;99.90;;;;;;4935040;29;20098;-85
2023/03/13 04:43:19;;;;;;;15.98;7.68;;;9.60;99.90;;;;;;4934491;29;20085;-86
2023/03/13 04:45:45;;;;;;;13.52;7.22;;;9.50;99.90;;;;;;4918726;29;20047;-86
2023/03/13 04:48:11;;;;;;;11.48;7.25;;;9.70;99.90;;;;;;4935258;29;20054;-85
2023/03/13 04:50:37;;;;;;;13.32;7.00;;;9.70;99.90;;;;;;4933068;29;20047;-85
2023/03/13 04:53:03;;;;;;;13.95;7.30;;;9.70;99.90;;;;;;4934983;29;20047;-86
2023/03/13 04:55:31;;;;;;;11.85;6.90;;;9.70;99.90;;;;;;4934669;29;20138;-85
2023/03/13 04:57:57;;;;;;;14.38;6.88;;;9.80;99.90;;;;;;4934605;29;20138;-85
2023/03/13 05:00:23;;;;;;;15.20;7.28;;;9.90;99.90;;;;;;4934506;29;20392;-86
2023/03/13 05:02:48;;;;;;;13.50;7.22;;;9.90;99.90;;;;;;4934638;29;20043;-86
2023/03/13 05:05:14;;;;;;;12.27;7.68;;;10.00;99.90;;;;;;4933386;29;20058;-86
2023/03/13 05:07:40;;;;;;;17.70;7.82;;;10.00;99.90;;;;;;4935065;29;20083;-86
2023/03/13 05:10:06;;;;;;;13.48;6.85;;;9.90;99.90;;;;;;4935432;29;20058;-85
2023/03/13 05:12:32;;;;;;;13.45;6.88;;;10.10;99.90;;;;;;4934915;29;20043;-86
2023/03/13 05:14:57;;;;;;;11.80;6.20;;;10.00;99.90;;;;;;4935002;29;20566;-85
2023/03/13 05:17:23;;;;;;;10.70;6.45;;;10.10;99.90;;;;;;4939707;28;21561;-85
2023/03/13 05:19:49;;;;;;;15.05;7.35;;;10.20;99.90;;;;;;4936482;28;20094;-85
2023/03/13 05:22:14;;;;;;;14.18;7.25;;;10.20;99.90;;;;;;4950930;28;20035;-86
2023/03/13 05:24:40;;;;;;;13.70;7.07;;;10.20;99.90;;;;;;4938203;28;20074;-86
2023/03/13 05:27:06;;;;;;;17.10;7.72;;;10.30;99.90;;;;;;4953415;28;20126;-85
2023/03/13 05:29:41;;;;;;;16.45;7.40;;;10.40;99.90;;;;;;4937739;28;20565;-86
2023/03/13 05:32:18;;;;;;;18.55;6.30;;;10.50;99.90;;;;;;4937125;28;20051;-85
2023/03/13 05:34:43;;;;;;;17.88;6.70;;;10.50;99.90;;;;;;4952555;28;20554;-85
2023/03/13 05:37:09;;;;;;;14.95;5.85;;;10.60;99.90;;;;;;4937026;28;20046;-86
2023/03/13 05:39:35;;;;;;;14.85;5.10;;;10.60;99.90;;;;;;4936718;28;20050;-86
2023/03/13 05:42:00;;;;;;;11.70;4.53;;;10.70;99.90;;;;;;4952962;28;20049;-85
2023/03/13 05:44:26;;;;;;;14.23;5.10;;;10.80;99.90;;;;;;4953692;28;20058;-86
2023/03/13 05:46:52;;;;;;;13.43;4.65;;;10.90;99.90;;;;;;4936255;28;20086;-86
2023/03/13 05:49:18;;;;;;;12.82;4.85;;;10.90;99.90;;;;;;4937267;28;20089;-86
2023/03/13 05:51:43;;;;;;;20.48;5.10;;;10.90;99.90;;;;;;4952302;28;20047;-85
2023/03/13 05:54:09;;;;;;;17.10;5.00;;;10.90;99.90;;;;;;4936728;28;20053;-86
2023/03/13 05:56:35;;;;;;;19.23;4.57;;;10.90;99.90;;;;;;4937033;28;20538;-86
2023/03/13 05:59:00;;;;;;;11.60;3.95;;;11.00;99.90;;;;;;4937171;28;20046;-85
2023/03/13 06:01:28;;;;;;;12.55;4.07;;;11.00;99.90;;;;;;4936667;28;20043;-85
2023/03/13 06:03:54;;;;;;;15.63;5.10;;;11.00;99.90;;;;;;4936908;28;20043;-86
2023/03/13 06:06:20;;;;;;;15.63;4.53;;;11.00;99.90;;;;;;4936351;28;20426;-86
2023/03/13 06:08:45;;;;;;;19.52;3.97;;;11.00;99.90;;;;;;4936561;28;20043;-86
2023/03/13 06:11:11;;;;;;;22.05;4.60;;;11.00;99.90;;;;;;4936577;28;20136;-86
2023/03/13 06:13:37;;;;;;;16.05;4.43;;;11.00;99.90;;;;;;4936864;28;20046;-86
2023/03/13 06:16:03;;;;;;;14.23;4.05;;;11.00;99.90;;;;;;4952022;28;20058;-87
2023/03/13 06:18:29;;;;;;;12.80;3.53;;;11.10;99.90;;;;;;4937265;28;20042;-86
2023/03/13 06:20:57;;;;;;;13.25;4.20;;;11.00;99.90;;;;;;4936432;28;20071;-87
2023/03/13 06:23:23;;;;;;;13.35;4.30;;;10.90;99.90;;;;;;4940998;29;20455;-87
2023/03/13 06:25:50;;;;;;;14.45;4.15;;;11.00;99.90;;;;;;4933912;29;20043;-87
2023/03/13 06:28:18;;;;;;;17.17;4.75;;;11.00;99.90;;;;;;4933312;29;20035;-86
2023/03/13 06:30:44;;;;;;;13.43;4.40;;;10.90;99.90;;;;;;4933723;29;20055;-87
2023/03/13 06:33:10;;;;;;;18.27;4.65;;;10.90;99.90;;;;;;4932675;29;20060;-87
2023/03/13 06:35:40;;;;;;;18.15;5.07;;;10.90;99.90;;;;;;4932572;29;20086;-86
2023/03/13 06:38:06;;;;;;;14.65;4.72;;;10.90;99.90;;;;;;4933891;29;20460;-86
2023/03/13 06:40:31;;;;;;;16.95;4.63;;;11.00;99.90;;;;;;4933226;29;20518;-86
2023/03/13 06:42:58;;;;;;;21.38;5.88;;;10.90;99.90;;;;;;4933554;29;20086;-87
2023/03/13 06:45:24;;;;;;;19.40;5.57;;;11.00;99.90;;;;;;4932900;29;20059;-87
2023/03/13 06:47:51;;;;;;;17.20;5.07;;;11.00;99.90;;;;;;4934072;28;20106;-87
2023/03/13 06:50:17;;;;;;;16.67;5.65;;;11.00;99.90;;;;;;4932369;29;20118;-88
2023/03/13 06:52:42;;;;;;;16.67;5.75;;;11.10;99.90;;;;;;4933880;29;20048;-86
2023/03/13 06:55:09;;;;;;;17.55;6.03;;;11.10;99.90;;;;;;4934279;29;20039;-87
2023/03/13 06:57:35;;;;;;;14.80;5.07;;;11.10;99.90;;;;;;4933441;29;20078;-86
2023/03/13 07:00:00;;;;;;;19.92;5.40;;;11.20;99.90;;;;;;4933915;29;20047;-87
2023/03/13 07:02:26;;;;;;;17.50;5.53;;;11.10;99.90;;;;;;4934062;28;20051;-88
2023/03/13 07:04:52;;;;;;;17.00;4.78;;;11.10;99.90;;;;;;4933131;29;20063;-87
2023/03/13 07:07:17;;;;;;;15.55;4.28;;;11.20;99.90;;;;;;4933931;29;20047;-86
2023/03/13 07:09:43;;;;;;;16.00;4.40;;;11.20;99.90;;;;;;4933641;29;20059;-87
2023/03/13 07:12:09;;;;;;;16.75;5.10;;;11.30;99.90;;;;;;4933415;29;20082;-88
2023/03/13 07:14:35;;;;;;;17.15;4.72;;;11.30;99.90;;;;;;4934147;29;20094;-87
2023/03/13 07:17:00;;;;;;;15.90;5.32;;;11.30;99.90;;;;;;4934166;29;20039;-87
2023/03/13 07:19:26;;;;;;;18.13;4.95;;;11.30;99.90;;;;;;4933261;29;20051;-87
2023/03/13 07:21:52;;;;;;;19.27;4.80;;;11.30;99.90;;;;;;4933120;29;20134;-88
2023/03/13 07:24:18;;;;;;;14.20;4.22;;;11.40;99.90;;;;;;4933267;29;20054;-85
2023/03/13 07:26:44;;;;;;;18.15;4.53;;;11.40;99.90;;;;;;4933067;29;20399;-86
2023/03/13 07:29:09;;;;;;;16.10;4.18;;;11.40;99.90;;;;;;4933783;29;20137;-87
2023/03/13 07:31:35;;;;;;;19.90;4.45;;;11.40;99.90;;;;;;4932852;29;20491;-87
2023/03/13 07:34:01;;;;;;;18.83;4.63;;;11.40;99.90;;;;;;4933055;29;20047;-87
2023/03/13 07:36:27;;;;;;;18.60;4.35;;;11.40;99.90;;;;;;4932798;29;20079;-87
2023/03/13 07:38:53;;;;;;;17.55;4.82;;;11.40;99.90;;;;;;4932216;29;20134;-86
2023/03/13 07:41:19;;;;;;;14.63;3.95;;;11.40;99.90;;;;;;4932838;29;20046;-86
2023/03/13 07:43:45;;;;;;;20.98;4.30;;;11.40;99.90;;;;;;4930952;29;20454;-88
2023/03/13 07:46:14;;;;;;;12.05;3.88;;;11.40;99.90;;;;;;4917418;29;20508;-87
2023/03/13 07:48:41;;;;;;;13.90;4.78;;;11.40;99.90;;;;;;4933925;29;20425;-88
2023/03/13 07:51:13;;;;;;;14.20;4.18;;;11.40;99.90;;;;;;4933219;29;20071;-87
2023/03/13 07:53:38;;;;;;;19.13;4.75;;;11.40;99.90;;;;;;4934137;29;20047;-88
2023/03/13 07:56:06;;;;;;;14.63;4.10;;;11.40;99.90;;;;;;4933631;29;20103;-87
2023/03/13 07:58:34;;;;;;;9.65;2.97;;;11.40;99.90;;;;;;4934243;29;20059;-87
2023/03/13 08:01:07;;;;;;;10.25;3.30;;;11.30;99.90;;;;;;4932995;29;20047;-86
2023/03/13 08:03:33;;;;;;;15.85;3.67;;;11.40;99.90;;;;;;4933669;29;20059;-88
2023/03/13 08:06:00;;;;;;;13.00;3.55;;;11.30;99.90;;;;;;4932627;29;20048;-86
2023/03/13 08:08:26;;;;;;;12.40;3.38;;;11.30;99.90;;;;;;4933104;29;20396;-86
2023/03/13 08:10:52;;;;;;;13.00;3.22;;;11.30;99.90;;;;;;4933020;29;20054;-86
2023/03/13 08:13:18;;;;;;;9.80;3.03;;;11.30;99.90;;;;;;4933054;29;20484;-86
2023/03/13 08:15:44;;;;;;;9.85;3.10;;;11.30;99.90;;;;;;4947069;28;20043;-86
2023/03/13 08:18:09;;;;;;;14.63;3.15;;;11.30;99.90;;;;;;4935763;29;20074;-85
2023/03/13 08:20:35;;;;;;;9.45;2.97;;;11.30;99.90;;;;;;4934830;29;20047;-86
2023/03/13 08:23:01;;;;;;;9.88;2.70;;;11.30;99.90;;;;;;4935221;29;20054;-85
2023/03/13 08:25:26;;;;;;;10.75;2.30;;;11.40;99.90;;;;;;4936282;29;20051;-86
2023/03/13 08:27:53;;;;;;;8.98;3.08;;;11.40;99.90;;;;;;4935462;29;20486;-86
2023/03/13 08:30:19;;;;;;;8.48;2.30;;;11.40;99.90;;;;;;4935014;29;20091;-86
2023/03/13 08:32:45;;;;;;;9.13;2.47;;;11.60;99.90;;;;;;4935413;29;20093;-85
2023/03/13 08:35:10;;;;;;;8.73;2.42;;;11.60;99.90;;;;;;4949554;29;20062;-85
2023/03/13 08:37:36;;;;;;;10.32;2.35;;;11.70;99.90;;;;;;4935076;29;20039;-86
2023/03/13 08:40:02;;;;;;;10.55;2.15;;;11.80;99.90;;;;;;4934794;29;20098;-86
2023/03/13 08:42:28;;;;;;;8.23;2.08;;;11.90;99.90;;;;;;4934740;28;20035;-86
2023/03/13 08:44:54;;;;;;;7.88;2.03;;;12.00;99.90;;;;;;4934724;29;20055;-87
2023/03/13 08:47:19;;;;;;;8.70;1.65;;;12.10;99.90;;;;;;4950975;29;20039;-86
2023/03/13 08:49:45;;;;;;;9.35;1.60;;;12.20;99.90;;;;;;4934825;29;20102;-86
2023/03/13 08:52:11;;;;;;;11.50;2.00;;;12.30;99.90;;;;;;4950863;29;20050;-86
2023/03/13 08:54:36;;;;;;;10.32;1.63;;;12.40;99.90;;;;;;4950857;29;20102;-87
2023/03/13 08:57:02;;;;;;;11.52;2.08;;;12.40;99.90;;;;;;4933824;29;20047;-87
2023/03/13 08:59:28;;;;;;;11.20;1.88;;;12.50;99.90;;;;;;4935238;29;20051;-86
2023/03/13 09:01:54;;;;;;;6.78;1.13;;;12.50;99.90;;;;;;4935106;29;20043;-87
2023/03/13 09:04:29;;;;;;;11.55;1.65;;;12.60;99.90;;;;;;4934780;29;20142;-86
2023/03/13 09:06:54;;;;;;;11.85;2.00;;;12.60;99.90;;;;;;4934441;29;20521;-86
2023/03/13 09:09:20;;;;;;;5.55;1.20;;;12.70;99.90;;;;;;4934805;29;20047;-86
2023/03/13 09:11:46;;;;;;;8.18;1.65;;;12.80;99.90;;;;;;4949570;29;20056;-86
2023/03/13 09:14:12;;;;;;;6.93;1.60;;;12.80;99.90;;;;;;4935040;29;20063;-85
2023/03/13 09:16:37;;;;;;;7.78;1.63;;;12.90;99.90;;;;;;4934186;29;20054;-85
2023/03/13 09:19:03;;;;;;;7.30;1.80;;;12.90;99.90;;;;;;4933838;29;20102;-86
2023/03/13 09:21:31;;;;;;;8.48;1.95;;;12.80;99.90;;;;;;4934290;29;20051;-86
2023/03/13 09:23:57;;;;;;;10.38;1.83;;;12.60;99.90;;;;;;4934432;28;20129;-86
2023/03/13 09:26:24;;;;;;;9.18;1.90;;;12.70;99.90;;;;;;4934079;29;20523;-86
2023/03/13 09:28:57;;;;;;;7.93;1.60;;;12.70;99.90;;;;;;4934024;29;20412;-86
2023/03/13 09:31:25;;;;;;;14.48;2.35;;;12.70;99.90;;;;;;4933631;29;20047;-86
2023/03/13 09:33:51;;;;;;;16.30;2.22;;;12.70;99.90;;;;;;4934111;29;20046;-85
2023/03/13 09:36:18;;;;;;;12.48;3.25;;;12.60;99.90;;;;;;4933522;29;20047;-86
2023/03/13 09:38:44;;;;;;;11.05;2.28;;;12.60;99.90;;;;;;4933160;29;20051;-86
2023/03/13 09:41:16;;;;;;;12.88;2.35;;;12.60;99.90;;;;;;4934227;29;20051;-86
2023/03/13 09:43:50;;;;;;;11.07;2.20;;;12.50;99.90;;;;;;4950167;29;20059;-85
2023/03/13 09:46:24;;;;;;;17.40;2.33;;;12.60;99.90;;;;;;4933232;29;20134;-85
2023/03/13 09:48:56;;;;;;;13.52;2.28;;;12.50;99.90;;;;;;4949692;28;20086;-86
2023/03/13 09:51:32;;;;;;;13.88;2.97;;;12.50;99.90;;;;;;4932587;29;20062;-85
2023/03/13 09:54:00;;;;;;;9.50;2.08;;;12.60;99.90;;;;;;4933384;29;20434;-85
2023/03/13 09:56:38;;;;;;;16.35;3.13;;;12.60;99.90;;;;;;4949731;29;20479;-84
2023/03/13 09:59:15;;;;;;;12.73;2.58;;;12.60;99.90;;;;;;4948850;29;20043;-85
2023/03/13 10:01:42;;;;;;;12.73;2.63;;;12.60;99.90;;;;;;4932733;29;20047;-84
2023/03/13 10:04:34;;;;;;;17.33;2.78;;;12.70;99.90;;;;;;4949433;28;20047;-84
2023/03/13 10:07:01;;;;;;;16.75;2.80;;;12.70;99.90;;;;;;4947681;28;20047;-84
2023/03/13 10:09:31;;;;;;;11.57;2.60;;;12.90;99.90;;;;;;4949565;28;20051;-86
2023/03/13 10:12:08;;;;;;;18.45;3.17;;;13.00;99.90;;;;;;4933832;28;20147;-84
2023/03/13 10:14:42;;;;;;;11.32;2.20;;;13.10;99.90;;;;;;4948920;28;20447;-83
2023/03/13 10:17:28;;;;;;;14.55;2.67;;;13.10;99.90;;;;;;4933586;29;20054;-83
2023/03/13 10:19:59;;;;;;;13.40;2.50;;;13.20;99.90;;;;;;4932664;29;20058;-84
2023/03/13 10:22:28;;;;;;;17.15;2.90;;;13.20;99.90;;;;;;4944650;29;20044;-83
2023/03/13 10:24:59;;;;;;;21.98;3.30;;;13.30;99.90;;;;;;4930316;29;20052;-84
2023/03/13 10:27:25;;;;;;;16.58;3.40;;;13.30;99.90;;;;;;4929909;29;20392;-84
2023/03/13 10:29:51;;;;;;;18.67;3.33;;;13.40;99.90;;;;;;4929914;29;20054;-83
2023/03/13 10:32:17;;;;;;;15.88;2.72;;;13.50;99.90;;;;;;4929496;29;20130;-84
2023/03/13 10:34:48;;;;;;;21.70;3.42;;;13.60;99.90;;;;;;4929497;29;20047;-84
2023/03/13 10:37:18;;;;;;;24.40;3.70;;;13.70;99.90;;;;;;4929278;29;20039;-84
2023/03/13 10:39:44;;;;;;;18.77;3.90;;;13.80;99.90;;;;;;4913791;29;20089;-83
2023/03/13 10:42:29;;;;;;;19.23;3.80;;;13.80;99.90;;;;;;4912902;29;20075;-83
2023/03/13 10:45:02;;;;;;;16.17;3.28;;;13.80;99.90;;;;;;4913236;29;20524;-83
2023/03/13 10:47:33;;;;;;;18.33;3.20;;;13.80;99.90;;;;;;4914424;29;20546;-84
2023/03/13 10:50:00;;;;;;;21.17;3.83;;;13.80;99.90;;;;;;4913171;29;20102;-83
2023/03/13 10:52:33;;;;;;;21.17;3.70;;;13.90;99.90;;;;;;4929908;29;20048;-83
2023/03/13 10:55:04;;;;;;;23.17;3.92;;;13.90;99.90;;;;;;4930027;29;20091;-83
2023/03/13 10:57:33;;;;;;;22.77;4.10;;;13.90;99.90;;;;;;4929163;29;20053;-83
2023/03/13 11:00:05;;;;;;;19.23;3.72;;;13.80;99.90;;;;;;4929924;29;20043;-84
2023/03/13 11:02:35;;;;;;;17.60;3.58;;;13.80;99.90;;;;;;4946602;28;20039;-83
2023/03/13 11:05:22;;;;;;;21.17;4.03;;;13.70;99.90;;;;;;4931767;28;20052;-84
2023/03/13 11:07:48;;;;;;;25.63;4.38;;;13.70;99.90;;;;;;4948456;29;20138;-83
2023/03/13 11:10:17;;;;;;;19.38;3.42;;;13.70;99.90;;;;;;4931745;28;20079;-84
2023/03/13 11:12:47;;;;;;;20.20;3.47;;;13.70;99.90;;;;;;4948610;29;20483;-83
2023/03/13 11:15:17;;;;;;;17.40;3.15;;;13.60;99.90;;;;;;4932278;29;20047;-83
2023/03/13 11:17:51;;;;;;;15.10;3.13;;;13.70;99.90;;;;;;4947272;29;20047;-83
2023/03/13 11:20:26;;;;;;;28.02;5.10;;;13.60;99.90;;;;;;4950436;28;20069;-83
2023/03/13 11:23:10;;;;;;;17.73;3.40;;;13.70;99.90;;;;;;4928875;28;20500;-83
2023/03/13 11:25:54;;;;;;;;;;;13.70;99.90;;;;;;4932917;29;20388;-83
2023/03/13 11:28:28;;;;;;;17.92;3.00;;;13.80;99.90;;;;;;4933085;29;20013;-84
2023/03/13 11:31:08;;;;;;;13.77;2.40;;;13.80;99.90;;;;;;4931952;29;20058;-84
2023/03/13 11:33:39;;;;;;;20.30;3.20;;;13.80;99.90;;;;;;4932804;29;20194;-82
2023/03/13 11:36:18;;;;;;;15.57;2.90;;;13.80;99.90;;;;;;4932459;29;20047;-84
2023/03/13 11:38:48;;;;;;;13.07;2.95;;;13.80;99.90;;;;;;4937453;28;20062;-84
2023/03/13 11:41:29;;;;;;;13.70;2.70;;;13.80;99.90;;;;;;4927902;29;20570;-83
2023/03/13 11:44:22;;;;;;;17.52;3.13;;;13.80;99.90;;;;;;4943105;28;20095;-83
2023/03/13 11:46:58;;;;;;;15.77;2.78;;;13.70;99.90;;;;;;4942542;29;20050;-83
2023/03/13 11:49:36;;;;;;;13.93;2.17;;;13.70;99.90;;;;;;4943912;29;20044;-83
2023/03/13 11:52:29;;;;;;;14.32;2.83;;;13.80;99.90;;;;;;4944902;28;20058;-83
2023/03/13 11:55:15;;;;;;;13.38;2.67;;;13.90;99.90;;;;;;4930409;29;20061;-84
2023/03/13 11:57:50;;;;;;;12.68;1.90;;;14.10;99.90;;;;;;4961206;28;20078;-83
2023/03/13 12:00:27;;;;;;;11.48;2.28;;;14.30;99.90;;;;;;4929086;28;21189;-83
2023/03/13 12:03:03;;;;;;;14.35;2.47;;;14.30;99.90;;;;;;4946305;29;20086;-83
2023/03/13 12:05:39;;;;;;;11.43;2.25;;;14.30;99.90;;;;;;4926168;29;20047;-83
2023/03/13 12:08:11;;;;;;;13.13;2.88;;;14.20;99.90;;;;;;4930017;29;20047;-83
2023/03/13 12:10:45;;;;;;;19.25;3.47;;;14.20;99.90;;;;;;4932164;29;20506;-84
2023/03/13 12:13:21;;;;;;;19.25;2.30;;;14.20;99.90;;;;;;4932143;29;20043;-83
2023/03/13 12:15:51;;;;;;;11.55;2.55;;;14.20;99.90;;;;;;4932386;29;20055;-83
2023/03/13 12:18:28;;;;;;;20.98;3.17;;;14.20;99.90;;;;;;4930743;29;20407;-83
2023/03/13 12:21:01;;;;;;;16.38;2.67;;;14.20;99.90;;;;;;4931126;29;20055;-83
2023/03/13 12:23:45;;;;;;;18.33;2.92;;;14.20;99.90;;;;;;4948873;28;20139;-83
2023/03/13 12:26:17;;;;;;;23.13;3.70;;;14.20;99.90;;;;;;4933779;28;20055;-88
2023/03/13 12:28:46;;;;;;;22.38;3.33;;;14.10;99.90;;;;;;4934342;29;20043;-83
2023/03/13 12:31:21;;;;;;;23.98;3.80;;;14.10;99.90;;;;;;4949616;28;20074;-83
2023/03/13 12:33:59;;;;;;;18.42;2.92;;;14.10;99.90;;;;;;4950193;29;20115;-83
2023/03/13 12:36:40;;;;;;;20.15;3.97;;;14.10;99.90;;;;;;4949924;29;20480;-83
2023/03/13 12:39:18;;;;;;;22.35;4.05;;;14.10;99.90;;;;;;4935314;29;20459;-83
2023/03/13 12:41:53;;;;;;;19.73;3.40;;;14.20;99.90;;;;;;4949804;29;20055;-83
2023/03/13 12:44:19;;;;;;;21.40;3.95;;;14.20;99.90;;;;;;4967290;28;20102;-83
2023/03/13 12:47:07;;;;;;;22.00;3.70;;;14.30;99.90;;;;;;4951004;29;20058;-83
2023/03/13 12:50:15;;;;;;;23.02;4.43;;;14.20;99.90;;;;;;4934084;29;20046;-83